sensor_id;sensor_type;location;lat;lon;timestamp;temperature;humidity
21403;DHT22;10862;51.886;17.078;2022-09-12T00:00:39;12.40;99.90
21403;DHT22;10862;51.886;17.078;2022-09-12T00:03:04;12.30;99.90
21403;DHT22;10862;51.886;17.078;2022-09-12T00:05:30;12.40;99.90
21403;DHT22;10862;51.886;17.078;2022-09-12T00:07:57;12.30;99.90
21403;DHT22;10862;51.886;17.078;2022-09-12T00:10:23;12.30;99.90
21403;DHT22;10862;51.886;17.078;2022-09-12T00:12:48;12.30;99.90
21403;DHT22;10862;51.886;17.078;2022-09-12T00:15:14;12.30;99.90
21403;DHT22;10862;51.886;17.078;2022-09-12T00:17:39;12.30;99.90
21403;DHT22;10862;51.886;17.078;2022-09-12T00:20:06;12.10;99.90
21403;DHT22;10862;51.886;17.078;2022-09-12T00:22:32;12.20;99.90
21403;DHT22;10862;51.886;17.078;2022-09-12T00:24:58;12.20;99.90
21403;DHT22;10862;51.886;17.078;2022-09-12T00:27:23;12.20;99.90
21403;DHT22;10862;51.886;17.078;2022-09-12T00:29:49;12.20;99.90
21403;DHT22;10862;51.886;17.078;2022-09-12T00:32:14;12.10;99.90
21403;DHT22;10862;51.886;17.078;2022-09-12T00:34:40;12.10;99.90
21403;DHT22;10862;51.886;17.078;2022-09-12T00:37:05;12.10;99.90
21403;DHT22;10862;51.886;17.078;2022-09-12T00:39:31;12.10;99.90
21403;DHT22;10862;51.886;17.078;2022-09-12T00:41:56;12.00;99.90
21403;DHT22;10862;51.886;17.078;2022-09-12T00:47:01;12.20;99.90
21403;DHT22;10862;51.886;17.078;2022-09-12T00:49:40;12.10;99.90
21403;DHT22;10862;51.886;17.078;2022-09-12T00:52:12;12.20;99.90
21403;DHT22;10862;51.886;17.078;2022-09-12T00:54:47;12.10;99.90
21403;DHT22;10862;51.886;17.078;2022-09-12T00:57:13;12.10;99.90
21403;DHT22;10862;51.886;17.078;2022-09-12T00:59:43;12.10;99.90
21403;DHT22;10862;51.886;17.078;2022-09-12T01:02:11;12.10;99.90
21403;DHT22;10862;51.886;17.078;2022-09-12T01:04:37;12.10;99.90
21403;DHT22;10862;51.886;17.078;2022-09-12T01:07:04;12.10;99.90
21403;DHT22;10862;51.886;17.078;2022-09-12T01:09:30;12.20;99.90
21403;DHT22;10862;51.886;17.078;2022-09-12T01:11:56;12.20;99.90
21403;DHT22;10862;51.886;17.078;2022-09-12T01:14:22;12.30;99.90
21403;DHT22;10862;51.886;17.078;2022-09-12T01:16:48;12.20;99.90
21403;DHT22;10862;51.886;17.078;2022-09-12T01:34:52;12.30;99.90
21403;DHT22;10862;51.886;17.078;2022-09-12T01:37:37;12.20;99.90
21403;DHT22;10862;51.886;17.078;2022-09-12T01:43:18;12.30;99.90
21403;DHT22;10862;51.886;17.078;2022-09-12T01:48:06;12.30;99.90
21403;DHT22;10862;51.886;17.078;2022-09-12T01:50:31;12.30;99.90
21403;DHT22;10862;51.886;17.078;2022-09-12T01:52:59;12.30;99.90
21403;DHT22;10862;51.886;17.078;2022-09-12T01:57:53;12.20;99.90
21403;DHT22;10862;51.886;17.078;2022-09-12T02:00:21;12.20;99.90
21403;DHT22;10862;51.886;17.078;2022-09-12T02:03:04;12.30;99.90
21403;DHT22;10862;51.886;17.078;2022-09-12T02:05:43;12.20;99.90
21403;DHT22;10862;51.886;17.078;2022-09-12T02:08:19;12.30;99.90
21403;DHT22;10862;51.886;17.078;2022-09-12T02:10:48;12.30;99.90
21403;DHT22;10862;51.886;17.078;2022-09-12T02:13:17;12.40;99.90
21403;DHT22;10862;51.886;17.078;2022-09-12T02:15:48;12.30;99.90
21403;DHT22;10862;51.886;17.078;2022-09-12T02:18:16;12.40;99.90
21403;DHT22;10862;51.886;17.078;2022-09-12T02:20:43;12.40;99.90
21403;DHT22;10862;51.886;17.078;2022-09-12T02:23:13;12.40;99.90
21403;DHT22;10862;51.886;17.078;2022-09-12T02:25:40;12.40;99.90
21403;DHT22;10862;51.886;17.078;2022-09-12T02:28:08;12.40;99.90
21403;DHT22;10862;51.886;17.078;2022-09-12T02:30:38;12.40;99.90
21403;DHT22;10862;51.886;17.078;2022-09-12T02:33:06;12.50;99.90
21403;DHT22;10862;51.886;17.078;2022-09-12T02:35:48;12.50;99.90
21403;DHT22;10862;51.886;17.078;2022-09-12T02:38:25;12.40;99.90
21403;DHT22;10862;51.886;17.078;2022-09-12T02:40:52;12.50;99.90
21403;DHT22;10862;51.886;17.078;2022-09-12T02:43:18;12.40;99.90
21403;DHT22;10862;51.886;17.078;2022-09-12T02:45:44;12.40;99.90
21403;DHT22;10862;51.886;17.078;2022-09-12T02:48:17;12.40;99.90
21403;DHT22;10862;51.886;17.078;2022-09-12T02:50:44;12.40;99.90
21403;DHT22;10862;51.886;17.078;2022-09-12T02:53:10;12.40;99.90
21403;DHT22;10862;51.886;17.078;2022-09-12T02:55:36;12.40;99.90
21403;DHT22;10862;51.886;17.078;2022-09-12T02:58:03;12.40;99.90
21403;DHT22;10862;51.886;17.078;2022-09-12T03:00:29;12.40;99.90
21403;DHT22;10862;51.886;17.078;2022-09-12T03:03:14;12.50;99.90
21403;DHT22;10862;51.886;17.078;2022-09-12T03:05:56;12.50;99.90
21403;DHT22;10862;51.886;17.078;2022-09-12T03:16:26;12.50;99.90
21403;DHT22;10862;51.886;17.078;2022-09-12T03:19:06;12.50;99.90
21403;DHT22;10862;51.886;17.078;2022-09-12T03:26:47;12.40;99.90
21403;DHT22;10862;51.886;17.078;2022-09-12T03:29:11;12.50;99.90
21403;DHT22;10862;51.886;17.078;2022-09-12T03:31:46;12.40;99.90
21403;DHT22;10862;51.886;17.078;2022-09-12T03:34:12;12.40;99.90
21403;DHT22;10862;51.886;17.078;2022-09-12T03:36:37;12.40;99.90
21403;DHT22;10862;51.886;17.078;2022-09-12T03:39:03;12.40;99.90
21403;DHT22;10862;51.886;17.078;2022-09-12T03:41:29;12.30;99.90
21403;DHT22;10862;51.886;17.078;2022-09-12T03:43:54;12.30;99.90
21403;DHT22;10862;51.886;17.078;2022-09-12T03:46:21;12.30;99.90
21403;DHT22;10862;51.886;17.078;2022-09-12T03:48:46;12.20;99.90
21403;DHT22;10862;51.886;17.078;2022-09-12T03:51:12;12.20;99.90
21403;DHT22;10862;51.886;17.078;2022-09-12T03:53:37;12.20;99.90
21403;DHT22;10862;51.886;17.078;2022-09-12T03:56:09;12.20;99.90
21403;DHT22;10862;51.886;17.078;2022-09-12T03:58:35;12.10;99.90
21403;DHT22;10862;51.886;17.078;2022-09-12T04:01:07;12.10;99.90
21403;DHT22;10862;51.886;17.078;2022-09-12T04:03:37;12.00;99.90
21403;DHT22;10862;51.886;17.078;2022-09-12T04:06:03;12.00;99.90
21403;DHT22;10862;51.886;17.078;2022-09-12T04:08:28;12.00;99.90
21403;DHT22;10862;51.886;17.078;2022-09-12T04:11:00;12.00;99.90
21403;DHT22;10862;51.886;17.078;2022-09-12T04:13:26;12.00;99.90
21403;DHT22;10862;51.886;17.078;2022-09-12T04:15:55;12.00;99.90
21403;DHT22;10862;51.886;17.078;2022-09-12T04:18:21;12.00;99.90
21403;DHT22;10862;51.886;17.078;2022-09-12T04:20:46;12.00;99.90
21403;DHT22;10862;51.886;17.078;2022-09-12T04:23:12;12.00;99.90
21403;DHT22;10862;51.886;17.078;2022-09-12T04:25:37;12.00;99.90
21403;DHT22;10862;51.886;17.078;2022-09-12T04:28:02;12.00;99.90
21403;DHT22;10862;51.886;17.078;2022-09-12T04:30:28;12.00;99.90
21403;DHT22;10862;51.886;17.078;2022-09-12T04:32:53;12.00;99.90
21403;DHT22;10862;51.886;17.078;2022-09-12T04:35:19;12.00;99.90
21403;DHT22;10862;51.886;17.078;2022-09-12T04:37:44;11.90;99.90
21403;DHT22;10862;51.886;17.078;2022-09-12T04:40:10;12.00;99.90
21403;DHT22;10862;51.886;17.078;2022-09-12T04:42:35;12.00;99.90
21403;DHT22;10862;51.886;17.078;2022-09-12T04:45:01;12.00;99.90
21403;DHT22;10862;51.886;17.078;2022-09-12T04:47:27;11.90;99.90
21403;DHT22;10862;51.886;17.078;2022-09-12T04:49:53;11.90;99.90
21403;DHT22;10862;51.886;17.078;2022-09-12T04:52:18;11.90;99.90
21403;DHT22;10862;51.886;17.078;2022-09-12T04:54:44;11.90;99.90
21403;DHT22;10862;51.886;17.078;2022-09-12T04:57:09;12.00;99.90
21403;DHT22;10862;51.886;17.078;2022-09-12T04:59:35;12.10;99.90
21403;DHT22;10862;51.886;17.078;2022-09-12T05:02:00;12.10;99.90
21403;DHT22;10862;51.886;17.078;2022-09-12T05:04:26;12.10;99.90
21403;DHT22;10862;51.886;17.078;2022-09-12T05:06:52;12.10;99.90
21403;DHT22;10862;51.886;17.078;2022-09-12T05:09:17;12.20;99.90
21403;DHT22;10862;51.886;17.078;2022-09-12T05:11:43;12.30;99.90
21403;DHT22;10862;51.886;17.078;2022-09-12T05:14:10;12.40;99.90
21403;DHT22;10862;51.886;17.078;2022-09-12T05:16:35;12.50;99.90
21403;DHT22;10862;51.886;17.078;2022-09-12T05:19:01;12.50;99.90
21403;DHT22;10862;51.886;17.078;2022-09-12T05:21:26;12.60;99.90
21403;DHT22;10862;51.886;17.078;2022-09-12T05:23:52;12.70;99.90
21403;DHT22;10862;51.886;17.078;2022-09-12T05:26:18;12.80;99.90
21403;DHT22;10862;51.886;17.078;2022-09-12T05:28:45;12.90;99.90
21403;DHT22;10862;51.886;17.078;2022-09-12T05:31:11;13.00;99.90
21403;DHT22;10862;51.886;17.078;2022-09-12T05:33:37;12.90;99.90
21403;DHT22;10862;51.886;17.078;2022-09-12T05:36:04;13.00;99.90
21403;DHT22;10862;51.886;17.078;2022-09-12T05:38:30;12.90;99.90
21403;DHT22;10862;51.886;17.078;2022-09-12T05:41:17;12.90;99.90
21403;DHT22;10862;51.886;17.078;2022-09-12T05:43:42;12.80;99.90
21403;DHT22;10862;51.886;17.078;2022-09-12T05:46:12;12.90;99.90
21403;DHT22;10862;51.886;17.078;2022-09-12T05:48:38;13.00;99.90
21403;DHT22;10862;51.886;17.078;2022-09-12T05:51:05;13.00;99.90
21403;DHT22;10862;51.886;17.078;2022-09-12T05:53:31;13.10;99.90
21403;DHT22;10862;51.886;17.078;2022-09-12T05:56:13;13.30;99.90
21403;DHT22;10862;51.886;17.078;2022-09-12T05:58:39;13.20;99.90
21403;DHT22;10862;51.886;17.078;2022-09-12T06:01:06;13.30;99.90
21403;DHT22;10862;51.886;17.078;2022-09-12T06:03:33;13.30;99.90
21403;DHT22;10862;51.886;17.078;2022-09-12T06:06:02;13.40;99.90
21403;DHT22;10862;51.886;17.078;2022-09-12T06:08:28;13.30;99.90
21403;DHT22;10862;51.886;17.078;2022-09-12T06:11:00;13.40;99.90
21403;DHT22;10862;51.886;17.078;2022-09-12T06:13:27;13.40;99.90
21403;DHT22;10862;51.886;17.078;2022-09-12T06:15:52;13.40;99.90
21403;DHT22;10862;51.886;17.078;2022-09-12T06:18:18;13.30;99.90
21403;DHT22;10862;51.886;17.078;2022-09-12T06:20:45;13.40;99.90
21403;DHT22;10862;51.886;17.078;2022-09-12T06:23:10;13.50;99.90
21403;DHT22;10862;51.886;17.078;2022-09-12T06:25:37;13.70;99.90
21403;DHT22;10862;51.886;17.078;2022-09-12T06:28:02;13.80;99.90
21403;DHT22;10862;51.886;17.078;2022-09-12T06:30:28;13.80;99.90
21403;DHT22;10862;51.886;17.078;2022-09-12T06:32:54;13.80;99.90
21403;DHT22;10862;51.886;17.078;2022-09-12T06:35:21;13.80;99.90
21403;DHT22;10862;51.886;17.078;2022-09-12T06:37:47;13.80;99.90
21403;DHT22;10862;51.886;17.078;2022-09-12T06:40:13;13.70;99.90
21403;DHT22;10862;51.886;17.078;2022-09-12T06:42:38;13.80;99.90
21403;DHT22;10862;51.886;17.078;2022-09-12T06:45:04;13.70;99.90
21403;DHT22;10862;51.886;17.078;2022-09-12T06:47:30;13.80;99.90
21403;DHT22;10862;51.886;17.078;2022-09-12T06:49:55;13.70;99.90
21403;DHT22;10862;51.886;17.078;2022-09-12T06:52:21;13.70;99.90
21403;DHT22;10862;51.886;17.078;2022-09-12T06:54:46;13.80;99.90
21403;DHT22;10862;51.886;17.078;2022-09-12T06:57:12;13.90;99.90
21403;DHT22;10862;51.886;17.078;2022-09-12T06:59:37;14.00;99.90
21403;DHT22;10862;51.886;17.078;2022-09-12T07:02:02;14.10;99.90
21403;DHT22;10862;51.886;17.078;2022-09-12T07:04:28;14.20;99.90
21403;DHT22;10862;51.886;17.078;2022-09-12T07:06:53;14.50;99.90
21403;DHT22;10862;51.886;17.078;2022-09-12T07:09:19;14.50;99.90
21403;DHT22;10862;51.886;17.078;2022-09-12T07:11:45;14.50;99.90
21403;DHT22;10862;51.886;17.078;2022-09-12T07:14:12;14.50;99.90
21403;DHT22;10862;51.886;17.078;2022-09-12T07:16:38;14.50;99.90
21403;DHT22;10862;51.886;17.078;2022-09-12T07:19:04;14.40;99.90
21403;DHT22;10862;51.886;17.078;2022-09-12T07:21:30;14.40;99.90
21403;DHT22;10862;51.886;17.078;2022-09-12T07:23:56;14.40;99.90
21403;DHT22;10862;51.886;17.078;2022-09-12T07:26:25;14.30;99.90
21403;DHT22;10862;51.886;17.078;2022-09-12T07:28:51;14.30;99.90
21403;DHT22;10862;51.886;17.078;2022-09-12T07:31:19;14.40;99.90
21403;DHT22;10862;51.886;17.078;2022-09-12T07:33:45;14.40;99.90
21403;DHT22;10862;51.886;17.078;2022-09-12T07:36:11;14.60;99.90
21403;DHT22;10862;51.886;17.078;2022-09-12T07:38:37;14.70;99.90
21403;DHT22;10862;51.886;17.078;2022-09-12T07:41:12;14.60;99.90
21403;DHT22;10862;51.886;17.078;2022-09-12T07:43:38;14.60;99.90
21403;DHT22;10862;51.886;17.078;2022-09-12T07:46:03;14.70;99.90
21403;DHT22;10862;51.886;17.078;2022-09-12T07:48:29;14.60;99.90
21403;DHT22;10862;51.886;17.078;2022-09-12T07:50:58;14.60;99.90
21403;DHT22;10862;51.886;17.078;2022-09-12T07:53:24;14.60;99.90
21403;DHT22;10862;51.886;17.078;2022-09-12T07:55:53;14.70;99.90
21403;DHT22;10862;51.886;17.078;2022-09-12T07:58:19;14.70;99.90
21403;DHT22;10862;51.886;17.078;2022-09-12T08:00:44;14.70;99.90
21403;DHT22;10862;51.886;17.078;2022-09-12T08:03:10;14.60;99.90
21403;DHT22;10862;51.886;17.078;2022-09-12T08:05:35;14.60;99.90
21403;DHT22;10862;51.886;17.078;2022-09-12T08:08:01;14.70;99.90
21403;DHT22;10862;51.886;17.078;2022-09-12T08:10:27;14.70;99.90
21403;DHT22;10862;51.886;17.078;2022-09-12T08:12:52;14.70;99.90
21403;DHT22;10862;51.886;17.078;2022-09-12T08:15:17;14.70;99.90
21403;DHT22;10862;51.886;17.078;2022-09-12T08:17:44;14.80;99.90
21403;DHT22;10862;51.886;17.078;2022-09-12T08:20:10;15.10;99.90
21403;DHT22;10862;51.886;17.078;2022-09-12T08:22:36;15.30;99.90
21403;DHT22;10862;51.886;17.078;2022-09-12T08:25:02;15.50;99.90
21403;DHT22;10862;51.886;17.078;2022-09-12T08:27:27;15.60;99.90
21403;DHT22;10862;51.886;17.078;2022-09-12T08:29:53;15.60;99.90
21403;DHT22;10862;51.886;17.078;2022-09-12T08:32:19;15.80;99.90
21403;DHT22;10862;51.886;17.078;2022-09-12T08:34:45;15.60;99.90
21403;DHT22;10862;51.886;17.078;2022-09-12T08:37:10;15.60;99.90
21403;DHT22;10862;51.886;17.078;2022-09-12T08:39:36;15.50;99.90
21403;DHT22;10862;51.886;17.078;2022-09-12T08:42:02;15.50;99.90
21403;DHT22;10862;51.886;17.078;2022-09-12T08:44:47;15.80;99.90
21403;DHT22;10862;51.886;17.078;2022-09-12T08:47:31;15.80;99.90
21403;DHT22;10862;51.886;17.078;2022-09-12T08:52:28;15.90;99.90
21403;DHT22;10862;51.886;17.078;2022-09-12T08:54:54;15.80;99.90
21403;DHT22;10862;51.886;17.078;2022-09-12T08:57:20;15.80;99.90
21403;DHT22;10862;51.886;17.078;2022-09-12T08:59:46;16.00;99.90
21403;DHT22;10862;51.886;17.078;2022-09-12T09:20:34;16.90;99.90
21403;DHT22;10862;51.886;17.078;2022-09-12T09:23:07;16.90;99.90
21403;DHT22;10862;51.886;17.078;2022-09-12T09:26:40;17.20;99.90
21403;DHT22;10862;51.886;17.078;2022-09-12T09:28:52;17.30;99.90
21403;DHT22;10862;51.886;17.078;2022-09-12T09:31:20;17.10;99.90
21403;DHT22;10862;51.886;17.078;2022-09-12T09:33:50;18.20;99.90
21403;DHT22;10862;51.886;17.078;2022-09-12T09:36:19;19.40;99.90
21403;DHT22;10862;51.886;17.078;2022-09-12T09:38:47;18.60;99.90
21403;DHT22;10862;51.886;17.078;2022-09-12T09:43:55;18.00;99.90
21403;DHT22;10862;51.886;17.078;2022-09-12T09:46:20;17.70;99.90
21403;DHT22;10862;51.886;17.078;2022-09-12T09:48:47;17.40;99.90
21403;DHT22;10862;51.886;17.078;2022-09-12T09:51:14;17.40;99.90
21403;DHT22;10862;51.886;17.078;2022-09-12T09:56:52;17.80;99.90
21403;DHT22;10862;51.886;17.078;2022-09-12T09:59:09;17.60;99.90
21403;DHT22;10862;51.886;17.078;2022-09-12T10:01:36;17.50;99.90
21403;DHT22;10862;51.886;17.078;2022-09-12T10:04:03;17.50;99.90
21403;DHT22;10862;51.886;17.078;2022-09-12T10:06:29;17.80;99.90
21403;DHT22;10862;51.886;17.078;2022-09-12T10:11:41;18.70;99.90
21403;DHT22;10862;51.886;17.078;2022-09-12T10:14:17;19.00;99.90
21403;DHT22;10862;51.886;17.078;2022-09-12T10:16:48;18.20;99.90
21403;DHT22;10862;51.886;17.078;2022-09-12T10:19:24;18.00;99.90
21403;DHT22;10862;51.886;17.078;2022-09-12T10:21:57;17.80;99.90
21403;DHT22;10862;51.886;17.078;2022-09-12T10:24:23;17.80;99.90
21403;DHT22;10862;51.886;17.078;2022-09-12T10:27:34;17.80;99.90
21403;DHT22;10862;51.886;17.078;2022-09-12T10:29:38;17.60;99.90
21403;DHT22;10862;51.886;17.078;2022-09-12T10:32:08;17.60;99.90
21403;DHT22;10862;51.886;17.078;2022-09-12T10:34:34;17.30;99.90
21403;DHT22;10862;51.886;17.078;2022-09-12T10:37:02;17.50;99.90
21403;DHT22;10862;51.886;17.078;2022-09-12T10:39:28;17.70;99.90
21403;DHT22;10862;51.886;17.078;2022-09-12T10:41:55;18.30;99.90
21403;DHT22;10862;51.886;17.078;2022-09-12T10:44:25;20.20;99.90
21403;DHT22;10862;51.886;17.078;2022-09-12T10:46:51;21.80;99.90
21403;DHT22;10862;51.886;17.078;2022-09-12T10:49:30;22.30;99.90
21403;DHT22;10862;51.886;17.078;2022-09-12T10:51:56;22.00;99.90
21403;DHT22;10862;51.886;17.078;2022-09-12T10:54:25;22.40;98.00
21403;DHT22;10862;51.886;17.078;2022-09-12T11:01:48;20.90;99.90
21403;DHT22;10862;51.886;17.078;2022-09-12T11:11:59;19.10;99.90
21403;DHT22;10862;51.886;17.078;2022-09-12T11:22:05;22.90;93.00
21403;DHT22;10862;51.886;17.078;2022-09-12T11:34:45;21.60;97.30
21403;DHT22;10862;51.886;17.078;2022-09-12T11:37:18;21.90;97.30
21403;DHT22;10862;51.886;17.078;2022-09-12T11:39:49;21.70;96.90
21403;DHT22;10862;51.886;17.078;2022-09-12T11:42:30;20.30;99.90
21403;DHT22;10862;51.886;17.078;2022-09-12T11:45:03;20.60;99.90
21403;DHT22;10862;51.886;17.078;2022-09-12T11:47:31;21.40;99.90
21403;DHT22;10862;51.886;17.078;2022-09-12T11:49:58;20.90;99.90
21403;DHT22;10862;51.886;17.078;2022-09-12T11:52:28;19.90;99.90
21403;DHT22;10862;51.886;17.078;2022-09-12T11:57:30;19.00;99.90
21403;DHT22;10862;51.886;17.078;2022-09-12T12:00:02;18.80;99.90
21403;DHT22;10862;51.886;17.078;2022-09-12T12:02:30;18.70;99.90
21403;DHT22;10862;51.886;17.078;2022-09-12T12:05:16;18.70;99.90
21403;DHT22;10862;51.886;17.078;2022-09-12T12:07:55;18.80;99.90
21403;DHT22;10862;51.886;17.078;2022-09-12T12:10:43;19.50;99.90
21403;DHT22;10862;51.886;17.078;2022-09-12T12:13:08;19.30;99.90
21403;DHT22;10862;51.886;17.078;2022-09-12T12:15:34;19.10;99.90
21403;DHT22;10862;51.886;17.078;2022-09-12T12:18:02;19.00;99.90
21403;DHT22;10862;51.886;17.078;2022-09-12T12:20:28;18.60;99.90
21403;DHT22;10862;51.886;17.078;2022-09-12T12:22:53;18.60;99.90
21403;DHT22;10862;51.886;17.078;2022-09-12T12:27:52;19.50;99.90
21403;DHT22;10862;51.886;17.078;2022-09-12T12:31:03;20.20;99.90
21403;DHT22;10862;51.886;17.078;2022-09-12T12:38:00;19.20;99.90
21403;DHT22;10862;51.886;17.078;2022-09-12T12:40:26;19.60;99.90
21403;DHT22;10862;51.886;17.078;2022-09-12T12:42:57;19.80;99.90
21403;DHT22;10862;51.886;17.078;2022-09-12T12:47:52;19.70;99.90
21403;DHT22;10862;51.886;17.078;2022-09-12T12:58:00;20.60;99.90
21403;DHT22;10862;51.886;17.078;2022-09-12T13:00:27;20.10;99.90
21403;DHT22;10862;51.886;17.078;2022-09-12T13:05:21;19.90;99.90
21403;DHT22;10862;51.886;17.078;2022-09-12T13:07:52;20.60;99.90
21403;DHT22;10862;51.886;17.078;2022-09-12T13:10:25;20.10;99.90
21403;DHT22;10862;51.886;17.078;2022-09-12T13:12:53;19.90;99.90
21403;DHT22;10862;51.886;17.078;2022-09-12T13:15:40;19.60;99.90
21403;DHT22;10862;51.886;17.078;2022-09-12T13:18:15;19.40;99.90
21403;DHT22;10862;51.886;17.078;2022-09-12T13:20:47;19.90;99.90
21403;DHT22;10862;51.886;17.078;2022-09-12T13:23:34;19.70;99.90
21403;DHT22;10862;51.886;17.078;2022-09-12T13:26:00;19.70;99.90
21403;DHT22;10862;51.886;17.078;2022-09-12T13:28:27;20.30;99.90
21403;DHT22;10862;51.886;17.078;2022-09-12T13:31:00;20.40;99.90
21403;DHT22;10862;51.886;17.078;2022-09-12T13:33:38;20.50;99.90
21403;DHT22;10862;51.886;17.078;2022-09-12T13:43:58;22.50;94.20
21403;DHT22;10862;51.886;17.078;2022-09-12T13:46:25;22.10;92.50
21403;DHT22;10862;51.886;17.078;2022-09-12T13:48:52;21.90;94.20
21403;DHT22;10862;51.886;17.078;2022-09-12T13:51:25;22.30;93.30
21403;DHT22;10862;51.886;17.078;2022-09-12T13:53:52;21.30;95.00
21403;DHT22;10862;51.886;17.078;2022-09-12T13:56:20;21.20;95.20
21403;DHT22;10862;51.886;17.078;2022-09-12T13:58:53;21.60;95.10
21403;DHT22;10862;51.886;17.078;2022-09-12T14:01:20;22.10;94.00
21403;DHT22;10862;51.886;17.078;2022-09-12T14:03:50;22.50;91.60
21403;DHT22;10862;51.886;17.078;2022-09-12T14:06:42;22.70;90.60
21403;DHT22;10862;51.886;17.078;2022-09-12T14:09:14;22.70;82.80
21403;DHT22;10862;51.886;17.078;2022-09-12T14:11:39;22.90;77.00
21403;DHT22;10862;51.886;17.078;2022-09-12T14:14:05;22.70;84.00
21403;DHT22;10862;51.886;17.078;2022-09-12T14:16:41;22.00;84.60
21403;DHT22;10862;51.886;17.078;2022-09-12T14:19:07;21.80;87.40
21403;DHT22;10862;51.886;17.078;2022-09-12T14:21:34;22.30;85.60
21403;DHT22;10862;51.886;17.078;2022-09-12T14:24:00;21.40;88.70
21403;DHT22;10862;51.886;17.078;2022-09-12T14:26:26;21.10;91.50
21403;DHT22;10862;51.886;17.078;2022-09-12T14:28:54;21.10;93.20
21403;DHT22;10862;51.886;17.078;2022-09-12T14:31:21;20.70;94.50
21403;DHT22;10862;51.886;17.078;2022-09-12T14:33:48;20.50;96.60
21403;DHT22;10862;51.886;17.078;2022-09-12T14:36:19;20.10;98.10
21403;DHT22;10862;51.886;17.078;2022-09-12T14:38:45;19.90;99.20
21403;DHT22;10862;51.886;17.078;2022-09-12T14:41:13;19.90;99.90
21403;DHT22;10862;51.886;17.078;2022-09-12T14:43:45;19.70;99.90
21403;DHT22;10862;51.886;17.078;2022-09-12T14:46:18;19.60;99.90
21403;DHT22;10862;51.886;17.078;2022-09-12T14:48:49;19.60;99.90
21403;DHT22;10862;51.886;17.078;2022-09-12T14:51:20;19.50;99.90
21403;DHT22;10862;51.886;17.078;2022-09-12T14:53:47;19.30;99.90
21403;DHT22;10862;51.886;17.078;2022-09-12T14:56:13;19.00;99.90
21403;DHT22;10862;51.886;17.078;2022-09-12T14:58:39;18.90;99.90
21403;DHT22;10862;51.886;17.078;2022-09-12T15:03:34;18.60;99.90
21403;DHT22;10862;51.886;17.078;2022-09-12T15:06:00;18.50;99.90
21403;DHT22;10862;51.886;17.078;2022-09-12T15:08:30;18.50;99.90
21403;DHT22;10862;51.886;17.078;2022-09-12T15:10:56;18.50;99.90
21403;DHT22;10862;51.886;17.078;2022-09-12T15:13:22;18.40;99.90
21403;DHT22;10862;51.886;17.078;2022-09-12T15:15:53;18.10;99.90
21403;DHT22;10862;51.886;17.078;2022-09-12T15:18:20;18.10;99.90
21403;DHT22;10862;51.886;17.078;2022-09-12T15:20:47;18.10;99.90
21403;DHT22;10862;51.886;17.078;2022-09-12T15:23:58;18.20;99.90
21403;DHT22;10862;51.886;17.078;2022-09-12T15:25:59;18.10;99.90
21403;DHT22;10862;51.886;17.078;2022-09-12T15:28:25;17.90;99.90
21403;DHT22;10862;51.886;17.078;2022-09-12T15:30:51;17.80;99.90
21403;DHT22;10862;51.886;17.078;2022-09-12T15:33:18;17.80;99.90
21403;DHT22;10862;51.886;17.078;2022-09-12T15:35:45;17.80;99.90
21403;DHT22;10862;51.886;17.078;2022-09-12T15:38:11;17.80;99.90
21403;DHT22;10862;51.886;17.078;2022-09-12T15:40:36;17.80;99.90
21403;DHT22;10862;51.886;17.078;2022-09-12T15:43:02;17.90;99.90
21403;DHT22;10862;51.886;17.078;2022-09-12T15:45:29;17.90;99.90
21403;DHT22;10862;51.886;17.078;2022-09-12T15:47:55;17.90;99.90
21403;DHT22;10862;51.886;17.078;2022-09-12T15:50:20;17.90;99.90
21403;DHT22;10862;51.886;17.078;2022-09-12T15:52:46;17.90;99.90
21403;DHT22;10862;51.886;17.078;2022-09-12T15:55:16;17.90;99.90
21403;DHT22;10862;51.886;17.078;2022-09-12T15:57:42;17.80;99.90
21403;DHT22;10862;51.886;17.078;2022-09-12T16:00:08;17.90;99.90
21403;DHT22;10862;51.886;17.078;2022-09-12T16:02:33;18.00;99.90
21403;DHT22;10862;51.886;17.078;2022-09-12T16:04:59;18.00;99.90
21403;DHT22;10862;51.886;17.078;2022-09-12T16:07:25;18.00;99.90
21403;DHT22;10862;51.886;17.078;2022-09-12T16:09:50;17.90;99.90
21403;DHT22;10862;51.886;17.078;2022-09-12T16:12:15;18.10;99.90
21403;DHT22;10862;51.886;17.078;2022-09-12T16:14:41;18.00;99.90
21403;DHT22;10862;51.886;17.078;2022-09-12T16:17:06;17.90;99.90
21403;DHT22;10862;51.886;17.078;2022-09-12T16:19:32;17.90;99.90
21403;DHT22;10862;51.886;17.078;2022-09-12T16:21:57;17.80;99.90
21403;DHT22;10862;51.886;17.078;2022-09-12T16:24:23;17.80;99.90
21403;DHT22;10862;51.886;17.078;2022-09-12T16:26:48;17.80;99.90
21403;DHT22;10862;51.886;17.078;2022-09-12T16:29:14;17.70;99.90
21403;DHT22;10862;51.886;17.078;2022-09-12T16:31:39;17.70;99.90
21403;DHT22;10862;51.886;17.078;2022-09-12T16:34:05;17.60;99.90
21403;DHT22;10862;51.886;17.078;2022-09-12T16:36:31;17.50;99.90
21403;DHT22;10862;51.886;17.078;2022-09-12T16:38:56;17.40;99.90
21403;DHT22;10862;51.886;17.078;2022-09-12T16:41:22;17.40;99.90
21403;DHT22;10862;51.886;17.078;2022-09-12T16:43:49;17.30;99.90
21403;DHT22;10862;51.886;17.078;2022-09-12T16:46:21;17.30;99.90
21403;DHT22;10862;51.886;17.078;2022-09-12T16:48:48;17.20;99.90
21403;DHT22;10862;51.886;17.078;2022-09-12T16:51:15;17.10;99.90
21403;DHT22;10862;51.886;17.078;2022-09-12T16:53:41;17.10;99.90
21403;DHT22;10862;51.886;17.078;2022-09-12T16:56:07;17.10;99.90
21403;DHT22;10862;51.886;17.078;2022-09-12T16:58:33;17.10;99.90
21403;DHT22;10862;51.886;17.078;2022-09-12T17:01:00;17.10;99.90
21403;DHT22;10862;51.886;17.078;2022-09-12T17:03:26;16.90;99.90
21403;DHT22;10862;51.886;17.078;2022-09-12T17:05:58;16.90;99.90
21403;DHT22;10862;51.886;17.078;2022-09-12T17:08:24;16.90;99.90
21403;DHT22;10862;51.886;17.078;2022-09-12T17:10:49;16.90;99.90
21403;DHT22;10862;51.886;17.078;2022-09-12T17:13:15;16.90;99.90
21403;DHT22;10862;51.886;17.078;2022-09-12T17:15:41;16.90;99.90
21403;DHT22;10862;51.886;17.078;2022-09-12T17:18:06;16.70;99.90
21403;DHT22;10862;51.886;17.078;2022-09-12T17:20:34;16.60;99.90
21403;DHT22;10862;51.886;17.078;2022-09-12T17:22:59;16.60;99.90
21403;DHT22;10862;51.886;17.078;2022-09-12T17:25:25;16.40;99.90
21403;DHT22;10862;51.886;17.078;2022-09-12T17:27:52;16.30;99.90
21403;DHT22;10862;51.886;17.078;2022-09-12T17:30:17;16.20;99.90
21403;DHT22;10862;51.886;17.078;2022-09-12T17:32:43;16.10;99.90